Time;durP1;ratioP1;P1;durP2;ratioP2;P2;SDS_P1;SDS_P2;PMS_P1;PMS_P2;Temp;Humidity;BMP_temperature;BMP_pressure;BME280_temperature;BME280_humidity;BME280_pressure;Samples;Min_cycle;Max_cycle;Signal;HPM_P1;HPM_P2
2024/01/21 00:01:14;;;;;;;13.18;7.35;;;-7.00;98.00;;;;;;5042181;28;20127;-91
2024/01/21 00:03:40;;;;;;;10.23;7.53;;;-7.00;98.00;;;;;;5053165;28;20013;-92
2024/01/21 00:06:06;;;;;;;10.98;7.25;;;-7.10;98.10;;;;;;5073642;28;20041;-91
2024/01/21 00:08:31;;;;;;;13.18;9.93;;;-7.10;98.10;;;;;;5037133;28;20021;-86
2024/01/21 00:10:57;;;;;;;14.15;7.13;;;-7.10;98.10;;;;;;5037290;28;20052;-86
2024/01/21 00:13:23;;;;;;;10.52;6.53;;;-7.20;98.10;;;;;;5049554;28;20020;-85
2024/01/21 00:15:49;;;;;;;10.93;7.68;;;-7.20;98.20;;;;;;5052127;28;20017;-86
2024/01/21 00:18:15;;;;;;;16.00;7.80;;;-7.20;98.30;;;;;;5052283;28;20512;-86
2024/01/21 00:20:41;;;;;;;10.65;7.57;;;-7.20;98.30;;;;;;5052296;28;20079;-85
2024/01/21 00:23:07;;;;;;;12.55;7.32;;;-7.20;98.40;;;;;;5034071;28;20071;-86
2024/01/21 00:25:33;;;;;;;11.43;7.90;;;-7.30;98.40;;;;;;5052473;28;20025;-86
2024/01/21 00:27:59;;;;;;;10.77;7.18;;;-7.30;98.40;;;;;;5052315;28;20025;-86
2024/01/21 00:30:24;;;;;;;14.02;7.68;;;-7.30;98.50;;;;;;5052642;28;20024;-87
2024/01/21 00:32:50;;;;;;;9.98;6.78;;;-7.30;98.50;;;;;;5055374;28;20052;-86
2024/01/21 00:35:16;;;;;;;15.05;8.23;;;-7.30;98.50;;;;;;5052534;28;20389;-85
2024/01/21 00:37:42;;;;;;;13.88;10.02;;;-7.30;98.50;;;;;;5054112;28;20025;-85
2024/01/21 00:40:08;;;;;;;11.88;7.93;;;-7.40;98.50;;;;;;5076758;28;20032;-85
2024/01/21 00:42:35;;;;;;;12.90;8.60;;;-7.50;98.50;;;;;;5057457;28;20035;-85
2024/01/21 00:45:01;;;;;;;14.40;9.20;;;-7.50;98.60;;;;;;5036421;28;20060;-85
2024/01/21 00:47:27;;;;;;;16.77;10.30;;;-7.50;98.60;;;;;;5035836;28;20044;-84
2024/01/21 00:49:52;;;;;;;10.80;8.10;;;-7.60;98.60;;;;;;5037173;28;20025;-87
2024/01/21 00:52:18;;;;;;;14.20;8.27;;;-7.60;98.70;;;;;;5042147;28;20422;-83
2024/01/21 00:54:44;;;;;;;16.02;9.10;;;-7.60;98.70;;;;;;5042090;28;20184;-86
2024/01/21 00:57:10;;;;;;;14.98;8.90;;;-7.70;98.80;;;;;;5038835;28;20168;-84
2024/01/21 00:59:36;;;;;;;13.90;8.30;;;-7.70;98.90;;;;;;5055875;28;20099;-85
2024/01/21 01:02:01;;;;;;;19.77;9.13;;;-7.70;99.00;;;;;;5054679;28;20018;-84
2024/01/21 01:04:27;;;;;;;18.50;9.13;;;-7.70;99.00;;;;;;5048006;28;20113;-85
2024/01/21 01:06:54;;;;;;;14.88;10.18;;;-7.70;99.10;;;;;;5038470;28;20087;-86
2024/01/21 01:09:19;;;;;;;14.75;8.48;;;-7.70;99.10;;;;;;5044671;28;20375;-86
2024/01/21 01:11:45;;;;;;;17.75;9.07;;;-7.70;99.20;;;;;;5041473;28;20021;-87
2024/01/21 01:14:11;;;;;;;14.07;8.07;;;-7.70;99.20;;;;;;5046135;28;20013;-86
2024/01/21 01:16:38;;;;;;;14.40;8.07;;;-7.70;99.30;;;;;;5052597;28;20041;-88
2024/01/21 01:19:05;;;;;;;17.85;9.65;;;-7.80;99.30;;;;;;5050037;28;20048;-87
2024/01/21 01:21:31;;;;;;;15.73;8.82;;;-7.80;99.30;;;;;;5045661;28;20056;-89
2024/01/21 01:23:57;;;;;;;16.38;9.30;;;-7.80;99.30;;;;;;5040553;28;20036;-88
2024/01/21 01:26:23;;;;;;;14.00;9.00;;;-7.80;99.40;;;;;;5046798;28;20483;-88
2024/01/21 01:28:50;;;;;;;19.95;9.80;;;-7.80;99.40;;;;;;5048673;28;20025;-89
2024/01/21 01:31:20;;;;;;;17.05;8.85;;;-7.80;99.40;;;;;;5042169;28;20071;-90
2024/01/21 01:33:46;;;;;;;18.10;9.50;;;-7.80;99.40;;;;;;5047051;28;20037;-87
2024/01/21 01:36:12;;;;;;;12.05;8.02;;;-7.90;99.40;;;;;;5037793;28;20029;-88
2024/01/21 01:38:39;;;;;;;15.70;8.90;;;-7.90;99.30;;;;;;5041959;28;20026;-87
2024/01/21 01:41:04;;;;;;;13.63;8.00;;;-8.00;99.30;;;;;;5043480;28;20029;-87
2024/01/21 01:43:30;;;;;;;15.52;9.25;;;-8.00;99.40;;;;;;5044945;28;20026;-88
2024/01/21 01:46:00;;;;;;;9.52;6.10;;;-8.00;99.50;;;;;;5040771;28;20046;-90
2024/01/21 01:48:28;;;;;;;12.77;8.40;;;-8.00;99.60;;;;;;5034898;28;20025;-88
2024/01/21 01:50:54;;;;;;;15.98;6.93;;;-8.10;99.60;;;;;;5034757;28;20029;-91
2024/01/21 01:53:20;;;;;;;16.90;8.27;;;-8.10;99.60;;;;;;5038710;28;20092;-89
2024/01/21 01:55:46;;;;;;;11.88;7.70;;;-8.20;99.70;;;;;;5027808;28;20107;-89
2024/01/21 01:58:15;;;;;;;16.23;8.43;;;-8.20;99.70;;;;;;5054916;28;20017;-88
2024/01/21 02:00:41;;;;;;;22.38;8.98;;;-8.20;99.70;;;;;;5046012;28;20063;-88
2024/01/21 02:03:08;;;;;;;13.70;8.77;;;-8.20;99.70;;;;;;5029895;28;20068;-89
2024/01/21 02:05:34;;;;;;;15.90;10.05;;;-8.30;99.70;;;;;;5034836;28;20085;-88
2024/01/21 02:08:00;;;;;;;15.75;8.07;;;-8.30;99.80;;;;;;5034648;28;20025;-89
2024/01/21 02:10:30;;;;;;;13.93;8.70;;;-8.30;99.80;;;;;;5054824;28;20004;-87
2024/01/21 02:12:57;;;;;;;14.77;8.30;;;-8.30;99.80;;;;;;5037770;28;20379;-87
2024/01/21 02:15:23;;;;;;;13.88;8.18;;;-8.30;99.80;;;;;;5029574;28;20394;-87
2024/01/21 02:17:49;;;;;;;13.00;7.15;;;-8.40;99.80;;;;;;5033167;28;20035;-86
2024/01/21 02:20:16;;;;;;;15.93;8.38;;;-8.40;99.80;;;;;;5035182;28;20021;-86
2024/01/21 02:22:42;;;;;;;24.17;10.77;;;-8.40;99.70;;;;;;5033719;28;20025;-87
2024/01/21 02:25:09;;;;;;;11.05;7.85;;;-8.50;99.70;;;;;;5034196;28;20021;-86
2024/01/21 02:27:38;;;;;;;18.23;8.98;;;-8.50;99.60;;;;;;5033895;28;20418;-87
2024/01/21 02:30:04;;;;;;;13.93;7.00;;;-8.50;99.60;;;;;;5033473;28;20021;-86
2024/01/21 02:32:30;;;;;;;12.23;5.85;;;-8.50;99.60;;;;;;5034492;28;20022;-87
2024/01/21 02:34:56;;;;;;;13.30;7.68;;;-8.60;99.60;;;;;;5032445;28;20042;-87
2024/01/21 02:37:21;;;;;;;13.20;7.47;;;-8.60;99.60;;;;;;5036349;28;20021;-87
2024/01/21 02:39:47;;;;;;;11.90;7.68;;;-8.60;99.60;;;;;;5034952;28;20065;-86
2024/01/21 02:42:13;;;;;;;13.75;7.07;;;-8.60;99.50;;;;;;5034946;28;20029;-86
2024/01/21 02:44:39;;;;;;;12.52;7.45;;;-8.70;99.50;;;;;;5039241;28;20045;-87
2024/01/21 02:47:05;;;;;;;11.43;6.97;;;-8.70;99.50;;;;;;5050621;28;20029;-87
2024/01/21 02:49:31;;;;;;;13.55;8.05;;;-8.80;99.40;;;;;;5041942;28;20014;-88
2024/01/21 02:51:57;;;;;;;12.98;7.40;;;-8.80;99.40;;;;;;5046587;28;20036;-87
2024/01/21 02:54:24;;;;;;;12.30;8.13;;;-8.80;99.20;;;;;;5034500;28;20017;-87
2024/01/21 02:56:50;;;;;;;12.98;6.95;;;-8.80;99.20;;;;;;5033850;28;20025;-86
2024/01/21 02:59:16;;;;;;;8.53;5.53;;;-8.90;99.10;;;;;;5036274;28;20032;-88
2024/01/21 03:01:42;;;;;;;11.52;6.70;;;-8.90;99.10;;;;;;5031533;28;20263;-85
2024/01/21 03:04:11;;;;;;;8.80;5.38;;;-8.90;99.00;;;;;;5037020;28;20475;-86
2024/01/21 03:06:38;;;;;;;10.88;6.25;;;-9.00;98.70;;;;;;5035777;28;20033;-86
2024/01/21 03:09:04;;;;;;;8.98;4.55;;;-9.00;98.50;;;;;;5036212;28;20386;-85
2024/01/21 03:11:32;;;;;;;9.32;4.53;;;-9.10;98.30;;;;;;5051213;28;20093;-88
2024/01/21 03:13:57;;;;;;;8.45;4.40;;;-9.10;98.20;;;;;;5061070;28;20045;-87
2024/01/21 03:16:24;;;;;;;10.70;5.03;;;-9.10;98.20;;;;;;5048598;28;20036;-86
2024/01/21 03:18:50;;;;;;;9.40;5.33;;;-9.20;98.10;;;;;;5040144;28;20028;-88
2024/01/21 03:21:15;;;;;;;12.02;5.00;;;-9.20;98.20;;;;;;5037224;28;20482;-87
2024/01/21 03:23:41;;;;;;;10.88;6.10;;;-9.20;98.20;;;;;;5028709;28;20025;-87
2024/01/21 03:26:07;;;;;;;11.20;5.65;;;-9.30;98.20;;;;;;5037086;28;20032;-87
2024/01/21 03:28:33;;;;;;;12.45;6.13;;;-9.30;98.10;;;;;;5039488;28;20032;-87
2024/01/21 03:30:59;;;;;;;8.70;5.07;;;-9.30;97.90;;;;;;5055303;28;20005;-89
2024/01/21 03:33:25;;;;;;;9.25;4.90;;;-9.30;97.80;;;;;;5045635;28;20089;-88
2024/01/21 03:35:52;;;;;;;10.38;5.30;;;-9.30;97.70;;;;;;5034061;28;20030;-88
2024/01/21 03:38:17;;;;;;;22.37;8.00;;;-9.40;97.60;;;;;;5034286;28;20025;-89
2024/01/21 03:40:43;;;;;;;9.93;6.43;;;-9.40;97.70;;;;;;5047184;28;20036;-89
2024/01/21 03:43:09;;;;;;;11.90;5.88;;;-9.50;97.60;;;;;;5033090;28;20017;-89
2024/01/21 03:45:35;;;;;;;10.60;7.55;;;-9.50;97.50;;;;;;5036991;28;20120;-86
2024/01/21 03:48:01;;;;;;;11.30;5.22;;;-9.50;97.50;;;;;;5053661;28;20390;-90
2024/01/21 03:50:27;;;;;;;14.23;5.97;;;-9.60;97.60;;;;;;5053759;28;20021;-90
2024/01/21 03:52:55;;;;;;;13.25;6.65;;;-9.60;97.70;;;;;;5035395;28;20029;-87
2024/01/21 03:55:21;;;;;;;6.07;4.20;;;-9.60;97.80;;;;;;5049703;28;20017;-87
2024/01/21 03:57:48;;;;;;;8.90;5.32;;;-9.60;97.90;;;;;;5053469;28;20032;-89
2024/01/21 04:00:14;;;;;;;11.95;6.63;;;-9.60;97.90;;;;;;5066351;28;20379;-87
2024/01/21 04:02:40;;;;;;;9.40;4.57;;;-9.60;97.90;;;;;;5036044;28;20464;-88
2024/01/21 04:05:07;;;;;;;12.13;5.72;;;-9.60;97.90;;;;;;5014841;28;20026;-87
2024/01/21 04:07:33;;;;;;;9.40;4.65;;;-9.60;97.90;;;;;;5013816;28;20073;-87
2024/01/21 04:09:59;;;;;;;14.10;7.00;;;-9.60;97.90;;;;;;5030453;28;20052;-88
2024/01/21 04:12:25;;;;;;;10.63;7.25;;;-9.60;97.90;;;;;;5023522;28;20041;-88
2024/01/21 04:14:51;;;;;;;5.35;3.95;;;-9.60;98.20;;;;;;5029761;28;20034;-87
2024/01/21 04:17:19;;;;;;;7.38;4.55;;;-9.70;97.70;;;;;;5032061;28;20038;-87
2024/01/21 04:19:46;;;;;;;6.55;4.28;;;-9.70;97.70;;;;;;5033746;28;20089;-86
2024/01/21 04:22:11;;;;;;;9.32;7.13;;;-9.70;97.80;;;;;;5035086;28;20032;-86
2024/01/21 04:24:37;;;;;;;12.20;6.32;;;-9.70;97.80;;;;;;5008441;28;20399;-86
2024/01/21 04:27:04;;;;;;;13.60;7.10;;;-9.70;97.70;;;;;;5034420;28;20030;-88
2024/01/21 04:29:30;;;;;;;9.13;6.45;;;-9.70;97.60;;;;;;5043341;28;20048;-85
2024/01/21 04:31:55;;;;;;;11.13;5.72;;;-9.70;97.60;;;;;;5033180;28;20025;-87
2024/01/21 04:34:21;;;;;;;8.35;5.45;;;-9.70;97.60;;;;;;5047815;28;20453;-86
2024/01/21 04:36:48;;;;;;;11.45;6.32;;;-9.70;97.60;;;;;;5034261;28;20021;-87
2024/01/21 04:39:18;;;;;;;14.50;6.68;;;-9.70;97.60;;;;;;5052667;28;20058;-87
2024/01/21 04:41:44;;;;;;;10.55;5.88;;;-9.80;97.40;;;;;;5034756;28;20035;-86
2024/01/21 04:44:10;;;;;;;13.65;6.05;;;-9.80;97.40;;;;;;5052709;28;20021;-87
2024/01/21 04:46:36;;;;;;;10.77;5.25;;;-9.80;97.40;;;;;;5031626;28;20444;-86
2024/01/21 04:49:02;;;;;;;11.95;4.53;;;-9.90;97.40;;;;;;5037431;28;20020;-86
2024/01/21 04:51:27;;;;;;;9.43;5.72;;;-9.90;97.40;;;;;;5035208;28;20021;-86
2024/01/21 04:53:53;;;;;;;14.95;5.38;;;-9.90;97.40;;;;;;5035895;28;20017;-86
2024/01/21 04:56:19;;;;;;;10.40;4.28;;;-9.90;97.40;;;;;;5054731;28;20028;-87
2024/01/21 04:58:46;;;;;;;10.10;5.03;;;-10.00;97.30;;;;;;5042786;28;20029;-90
2024/01/21 05:01:12;;;;;;;5.53;4.00;;;-10.00;97.40;;;;;;5046141;28;20386;-88
2024/01/21 05:03:38;;;;;;;9.45;5.57;;;-10.00;97.40;;;;;;5058745;28;20029;-88
2024/01/21 05:06:05;;;;;;;9.52;4.80;;;-10.00;97.30;;;;;;5063821;28;20117;-89
2024/01/21 05:08:32;;;;;;;9.02;5.47;;;-10.00;97.20;;;;;;5056385;28;20100;-89
2024/01/21 05:10:58;;;;;;;10.05;4.93;;;-10.00;97.20;;;;;;5073860;28;20016;-87
2024/01/21 05:13:23;;;;;;;8.93;4.03;;;-10.10;97.10;;;;;;5038293;28;20017;-86
2024/01/21 05:15:49;;;;;;;9.82;4.85;;;-10.10;97.00;;;;;;5056179;28;20107;-87
2024/01/21 05:18:15;;;;;;;9.60;4.40;;;-10.10;97.00;;;;;;5038369;28;20013;-87
2024/01/21 05:20:41;;;;;;;6.90;4.30;;;-10.10;97.00;;;;;;5029682;28;20030;-88
2024/01/21 05:23:07;;;;;;;7.25;3.78;;;-10.10;97.00;;;;;;5037227;28;20441;-87
2024/01/21 05:25:33;;;;;;;13.23;4.35;;;-10.10;96.90;;;;;;5059570;28;20032;-87
2024/01/21 05:27:59;;;;;;;8.75;4.47;;;-10.10;97.00;;;;;;5039720;28;20128;-88
2024/01/21 05:30:24;;;;;;;9.80;5.40;;;-10.20;97.00;;;;;;5059128;28;20103;-87
2024/01/21 05:32:51;;;;;;;8.95;4.05;;;-10.10;97.40;;;;;;5058011;28;20040;-87
2024/01/21 05:35:18;;;;;;;4.55;3.25;;;-10.10;97.10;;;;;;5039648;28;20351;-88
2024/01/21 05:37:44;;;;;;;7.43;3.83;;;-10.10;97.00;;;;;;5056348;28;20029;-86
2024/01/21 05:40:10;;;;;;;9.32;4.97;;;-10.20;96.90;;;;;;5037356;28;20024;-87
2024/01/21 05:42:36;;;;;;;6.35;4.15;;;-10.20;96.90;;;;;;5055597;28;20028;-89
2024/01/21 05:45:03;;;;;;;11.90;4.85;;;-10.20;96.90;;;;;;5057869;28;20045;-87
2024/01/21 05:47:29;;;;;;;6.88;4.47;;;-10.20;96.80;;;;;;5058790;28;20043;-88
2024/01/21 05:49:55;;;;;;;11.00;4.93;;;-10.20;96.70;;;;;;5049719;28;20032;-87
2024/01/21 05:52:21;;;;;;;10.88;4.63;;;-10.20;96.70;;;;;;5069474;28;20029;-90
2024/01/21 05:54:46;;;;;;;7.75;3.85;;;-10.20;96.60;;;;;;5042989;28;20021;-90
2024/01/21 05:57:12;;;;;;;12.52;5.05;;;-10.20;96.50;;;;;;5051430;28;20025;-84
2024/01/21 05:59:39;;;;;;;7.38;3.40;;;-10.20;96.50;;;;;;5047120;28;20443;-86
2024/01/21 06:02:07;;;;;;;9.85;5.95;;;-10.20;96.40;;;;;;5056196;28;20052;-84
2024/01/21 06:04:33;;;;;;;6.85;3.85;;;-10.20;96.50;;;;;;5055195;28;20037;-87
2024/01/21 06:06:59;;;;;;;6.53;4.70;;;-10.20;96.50;;;;;;5055156;28;20059;-86
2024/01/21 06:09:25;;;;;;;12.75;5.30;;;-10.20;96.60;;;;;;5053943;28;20337;-86
2024/01/21 06:11:51;;;;;;;11.02;4.85;;;-10.20;96.50;;;;;;5050356;28;20049;-88
2024/01/21 06:14:17;;;;;;;13.77;5.43;;;-10.30;96.60;;;;;;5067772;28;20265;-86
2024/01/21 06:16:43;;;;;;;11.98;6.13;;;-10.30;96.70;;;;;;5038463;28;20029;-87
2024/01/21 06:19:09;;;;;;;11.98;6.28;;;-10.30;96.80;;;;;;5040884;28;20017;-87
2024/01/21 06:21:42;;;;;;;12.70;6.10;;;-10.30;96.80;;;;;;5054910;28;20025;-87
2024/01/21 06:24:07;;;;;;;19.52;7.65;;;-10.30;96.90;;;;;;5055655;28;20017;-85
2024/01/21 06:26:37;;;;;;;13.25;6.20;;;-10.20;97.00;;;;;;5037759;28;20035;-88
2024/01/21 06:29:03;;;;;;;17.60;7.18;;;-10.20;97.00;;;;;;5053096;28;20013;-87
2024/01/21 06:31:30;;;;;;;14.07;8.73;;;-10.20;97.00;;;;;;5055106;28;20147;-85
2024/01/21 06:33:55;;;;;;;15.25;6.90;;;-10.20;97.10;;;;;;5054421;28;20425;-84
2024/01/21 06:36:25;;;;;;;9.55;5.57;;;-10.30;97.10;;;;;;5052137;28;20553;-86
2024/01/21 06:38:51;;;;;;;12.95;7.32;;;-10.30;97.30;;;;;;5061280;28;20017;-88
2024/01/21 06:41:16;;;;;;;17.13;8.07;;;-10.30;97.40;;;;;;5076168;28;20012;-87
2024/01/21 06:43:42;;;;;;;13.82;7.68;;;-10.30;97.40;;;;;;5044658;28;20016;-85
2024/01/21 06:46:09;;;;;;;15.23;7.60;;;-10.30;97.50;;;;;;5038459;28;20469;-87
2024/01/21 06:48:35;;;;;;;20.45;7.78;;;-10.30;97.50;;;;;;5054654;28;20047;-87
2024/01/21 06:51:10;;;;;;;18.75;11.25;;;-10.20;97.40;;;;;;5056274;28;20028;-85
2024/01/21 06:53:38;;;;;;;14.43;8.95;;;-10.20;97.40;;;;;;5037004;28;20025;-85
2024/01/21 06:56:07;;;;;;;11.55;8.15;;;-10.20;97.30;;;;;;5045700;28;20424;-87
2024/01/21 06:58:36;;;;;;;16.55;9.90;;;-10.20;97.10;;;;;;5055332;28;20085;-86
2024/01/21 07:01:02;;;;;;;16.20;8.95;;;-10.20;96.90;;;;;;5036543;28;20021;-86
2024/01/21 07:03:29;;;;;;;11.95;7.07;;;-10.20;96.80;;;;;;5042090;28;20032;-86
2024/01/21 07:05:55;;;;;;;10.75;7.03;;;-10.20;96.80;;;;;;5049081;28;20469;-86
2024/01/21 07:08:21;;;;;;;13.77;7.38;;;-10.20;96.80;;;;;;5038237;28;20534;-88
2024/01/21 07:10:47;;;;;;;16.67;8.07;;;-10.20;96.80;;;;;;5054802;28;20106;-86
2024/01/21 07:13:13;;;;;;;13.60;7.70;;;-10.20;96.90;;;;;;5055589;28;20102;-87
2024/01/21 07:15:42;;;;;;;11.35;7.35;;;-10.20;96.80;;;;;;5036202;28;20028;-87
2024/01/21 07:18:09;;;;;;;12.55;7.13;;;-10.20;96.90;;;;;;5053871;28;20025;-88
2024/01/21 07:20:35;;;;;;;12.70;6.38;;;-10.20;96.90;;;;;;5035456;28;20056;-87
2024/01/21 07:23:01;;;;;;;14.02;7.47;;;-10.10;97.00;;;;;;5053199;28;20110;-88
2024/01/21 07:25:26;;;;;;;10.65;6.25;;;-10.10;97.00;;;;;;5054312;28;20021;-87
2024/01/21 07:27:53;;;;;;;26.38;8.27;;;-10.10;96.90;;;;;;5036865;28;20372;-89
2024/01/21 07:30:20;;;;;;;15.27;9.95;;;-10.10;96.90;;;;;;5025992;28;20017;-88
2024/01/21 07:32:57;;;;;;;12.10;7.10;;;-10.10;96.90;;;;;;5038592;28;20033;-88
2024/01/21 07:35:23;;;;;;;;;;;-10.10;96.90;;;;;;5042923;28;20024;-88
2024/01/21 07:37:48;;;;;;;8.90;6.47;;;-10.10;96.80;;;;;;5056585;28;19904;-89
2024/01/21 07:40:14;;;;;;;10.65;6.75;;;-10.10;96.80;;;;;;5053832;28;20016;-89
2024/01/21 07:42:40;;;;;;;11.70;6.70;;;-10.00;96.80;;;;;;5053992;28;20462;-87
2024/01/21 07:45:06;;;;;;;13.05;6.28;;;-10.10;96.90;;;;;;5053860;28;20040;-90
2024/01/21 07:47:32;;;;;;;12.93;6.80;;;-10.00;96.90;;;;;;5048637;28;20160;-88
2024/01/21 07:49:58;;;;;;;11.10;6.68;;;-10.00;96.90;;;;;;5032894;28;20353;-89
2024/01/21 07:52:24;;;;;;;12.43;8.70;;;-10.00;96.90;;;;;;5055892;28;20436;-88
2024/01/21 07:54:50;;;;;;;10.25;6.78;;;-10.00;96.90;;;;;;5049383;28;20045;-90
2024/01/21 07:57:16;;;;;;;7.93;5.88;;;-10.00;96.90;;;;;;5073655;28;20092;-90
2024/01/21 07:59:42;;;;;;;12.65;6.45;;;-9.90;96.90;;;;;;5061981;28;20094;-88
2024/01/21 08:02:08;;;;;;;11.30;5.68;;;-9.90;96.90;;;;;;5058288;28;20021;-88
2024/01/21 08:04:34;;;;;;;12.20;7.65;;;-9.90;96.80;;;;;;5042606;28;20025;-86
2024/01/21 08:07:03;;;;;;;12.35;6.75;;;-9.80;96.90;;;;;;5061594;28;20040;-88
2024/01/21 08:09:29;;;;;;;12.85;8.35;;;-9.80;96.90;;;;;;5059330;28;20049;-89
2024/01/21 08:11:55;;;;;;;11.02;6.53;;;-9.70;96.80;;;;;;5043048;28;20056;-89
2024/01/21 08:14:21;;;;;;;12.80;7.18;;;-9.70;96.60;;;;;;5049601;28;20039;-86
2024/01/21 08:16:47;;;;;;;14.77;9.27;;;-9.60;96.50;;;;;;5056567;28;20044;-88
2024/01/21 08:19:17;;;;;;;11.25;7.30;;;-9.50;96.70;;;;;;5053125;28;20037;-94
2024/01/21 08:21:43;;;;;;;11.57;7.35;;;-9.20;97.10;;;;;;5045754;28;20418;-90
2024/01/21 08:24:09;;;;;;;12.48;6.20;;;-9.00;97.00;;;;;;5024986;28;20398;-93
2024/01/21 08:26:34;;;;;;;11.15;7.30;;;-8.70;96.40;;;;;;5037593;28;20029;-88
2024/01/21 08:29:07;;;;;;;10.38;6.30;;;-8.50;96.20;;;;;;5050825;28;20019;-91
2024/01/21 08:31:33;;;;;;;14.77;8.70;;;-8.20;96.10;;;;;;5053319;28;20056;-90
2024/01/21 08:33:59;;;;;;;11.32;6.22;;;-7.80;95.80;;;;;;5049653;28;20131;-91
2024/01/21 08:36:24;;;;;;;10.10;6.90;;;-7.50;95.40;;;;;;5034843;28;20088;-89
2024/01/21 08:38:51;;;;;;;10.88;6.40;;;-7.10;94.90;;;;;;5037819;28;20071;-88
2024/01/21 08:41:17;;;;;;;11.33;6.87;;;-6.90;94.30;;;;;;5031219;28;20429;-91
2024/01/21 08:43:43;;;;;;;14.23;6.55;;;-6.60;93.70;;;;;;5048266;28;20079;-90
2024/01/21 08:46:11;;;;;;;11.85;6.65;;;-6.50;93.00;;;;;;5048211;28;20071;-89
2024/01/21 08:48:37;;;;;;;14.77;8.68;;;-6.50;92.20;;;;;;5048401;28;20056;-88
2024/01/21 08:51:03;;;;;;;15.80;7.88;;;-6.40;92.10;;;;;;5061412;28;20024;-90
2024/01/21 08:53:28;;;;;;;13.52;7.55;;;-6.30;91.90;;;;;;5051573;28;20183;-89
2024/01/21 08:55:54;;;;;;;11.07;6.63;;;-6.30;90.80;;;;;;5052341;28;20369;-89
2024/01/21 08:58:20;;;;;;;13.60;8.55;;;-6.40;91.00;;;;;;5057692;28;20029;-90
2024/01/21 09:00:46;;;;;;;12.95;7.57;;;-6.40;91.00;;;;;;5049913;28;20035;-90
2024/01/21 09:03:12;;;;;;;10.52;6.38;;;-6.30;91.20;;;;;;5059767;28;20076;-88
2024/01/21 09:05:38;;;;;;;11.55;7.40;;;-6.20;91.40;;;;;;5056364;28;20079;-88
2024/01/21 09:08:04;;;;;;;12.48;7.15;;;-6.00;91.00;;;;;;5042254;28;20160;-89
2024/01/21 09:10:30;;;;;;;12.85;9.13;;;-5.80;90.10;;;;;;5052340;28;20048;-89
2024/01/21 09:12:56;;;;;;;19.35;8.63;;;-5.80;88.70;;;;;;5056097;28;20020;-87
2024/01/21 09:15:23;;;;;;;14.90;7.53;;;-5.80;88.20;;;;;;5054512;28;20040;-86
2024/01/21 09:17:49;;;;;;;20.00;12.30;;;-5.90;88.50;;;;;;5057248;28;20090;-85
2024/01/21 09:20:15;;;;;;;13.95;8.38;;;-5.90;87.60;;;;;;5038832;28;20020;-81
2024/01/21 09:22:40;;;;;;;14.57;8.00;;;-6.00;88.00;;;;;;5056786;28;20025;-85
2024/01/21 09:25:06;;;;;;;12.20;7.45;;;-6.10;88.30;;;;;;5060552;28;20036;-84
2024/01/21 09:27:33;;;;;;;13.32;9.38;;;;;;;;;;5042761;28;20075;-86
2024/01/21 09:29:59;;;;;;;9.20;6.85;;;;;;;;;;5037610;28;20370;-88
2024/01/21 09:32:28;;;;;;;13.52;7.32;;;;;;;;;;5045240;28;20040;-89
2024/01/21 09:34:54;;;;;;;13.38;8.48;;;;;;;;;;5042342;28;20021;-90
2024/01/21 09:37:20;;;;;;;12.43;7.78;;;;;;;;;;5033624;28;20025;-88
2024/01/21 09:39:46;;;;;;;12.80;7.57;;;;;;;;;;5074902;28;20036;-88
2024/01/21 09:42:17;;;;;;;14.85;9.13;;;;;;;;;;5046175;28;20021;-88
2024/01/21 09:44:45;;;;;;;11.95;6.45;;;;;;;;;;5064480;28;20063;-87
2024/01/21 09:47:12;;;;;;;12.02;8.13;;;;;;;;;;5057785;28;20033;-90
2024/01/21 09:49:38;;;;;;;13.88;7.53;;;;;;;;;;5040879;28;20477;-87
2024/01/21 09:52:05;;;;;;;12.18;7.78;;;;;;;;;;5057763;28;20580;-88
2024/01/21 09:54:32;;;;;;;21.55;10.35;;;;;;;;;;5055630;28;20493;-88
2024/01/21 09:57:34;;;;;;;16.50;8.70;;;;;;;;;;5052698;28;20032;-88
2024/01/21 10:00:02;;;;;;;13.65;10.02;;;;;;;;;;5046850;28;20451;-86
2024/01/21 10:02:28;;;;;;;15.63;8.00;;;;;;;;;;5069092;28;20024;-88
2024/01/21 10:04:54;;;;;;;18.73;11.70;;;;;;;;;;5068272;28;20030;-90
2024/01/21 10:07:21;;;;;;;15.65;9.02;;;;;;;;;;5062099;28;20045;-86
2024/01/21 10:09:54;;;;;;;12.55;8.48;;;;;;;;;;5040615;28;20052;-88
2024/01/21 10:12:23;;;;;;;20.92;9.95;;;;;;;;;;5048500;28;20032;-88
2024/01/21 10:14:49;;;;;;;13.77;8.93;;;;;;;;;;5044889;28;20037;-85
2024/01/21 10:17:15;;;;;;;14.48;9.77;;;;;;;;;;5056320;28;20084;-88
2024/01/21 10:19:41;;;;;;;14.13;8.60;;;;;;;;;;5050477;28;20050;-86
2024/01/21 10:22:13;;;;;;;15.88;9.00;;;;;;;;;;5074636;28;20067;-86
2024/01/21 10:24:44;;;;;;;15.35;9.80;;;-6.20;89.50;;;;;;5069979;28;20021;-87
2024/01/21 10:27:10;;;;;;;17.73;10.80;;;-5.20;91.50;;;;;;5044398;28;20029;-86
2024/01/21 10:29:43;;;;;;;15.95;9.90;;;-4.50;91.40;;;;;;5055893;28;20021;-88
2024/01/21 10:32:16;;;;;;;13.43;9.13;;;-3.70;91.10;;;;;;5035836;28;20477;-85
2024/01/21 10:34:45;;;;;;;17.42;10.48;;;-3.20;91.00;;;;;;5035858;28;20024;-86
2024/01/21 10:37:15;;;;;;;11.07;5.97;;;-3.00;90.40;;;;;;5053794;28;20021;-87
2024/01/21 10:39:44;;;;;;;12.93;9.13;;;-2.80;91.00;;;;;;5053359;28;20029;-86
2024/01/21 10:42:12;;;;;;;17.80;8.57;;;-3.20;88.70;;;;;;5052099;28;20440;-86
2024/01/21 10:44:39;;;;;;;15.02;9.65;;;-3.80;86.50;;;;;;5039981;28;20107;-91
2024/01/21 10:47:08;;;;;;;15.23;9.35;;;-4.40;85.80;;;;;;5036844;28;20486;-88
2024/01/21 10:49:36;;;;;;;14.18;9.65;;;-5.00;85.60;;;;;;5031029;28;20064;-88
2024/01/21 10:52:02;;;;;;;18.10;9.73;;;-5.60;85.10;;;;;;5043499;28;20018;-89
2024/01/21 10:54:28;;;;;;;13.38;8.50;;;-6.00;85.00;;;;;;5052709;28;20018;-86
2024/01/21 10:56:55;;;;;;;12.30;7.87;;;-6.50;85.50;;;;;;5030305;28;20076;-82
2024/01/21 10:59:21;;;;;;;15.20;9.40;;;-6.80;86.30;;;;;;5031276;28;20286;-83
2024/01/21 11:01:49;;;;;;;15.00;7.47;;;-7.10;87.10;;;;;;5033853;28;20026;-82
2024/01/21 11:04:15;;;;;;;11.27;5.80;;;-7.40;88.20;;;;;;5031233;28;20025;-84
2024/01/21 11:06:48;;;;;;;13.32;7.90;;;-7.60;89.20;;;;;;5031649;28;20037;-83
2024/01/21 11:09:23;;;;;;;9.10;5.80;;;-7.80;90.10;;;;;;5031732;28;20032;-83
2024/01/21 11:11:52;;;;;;;13.95;7.88;;;-7.90;90.40;;;;;;5039678;28;20021;-85
2024/01/21 11:14:35;;;;;;;13.70;6.75;;;-8.00;90.40;;;;;;5039072;28;20017;-84
2024/01/21 11:17:05;;;;;;;12.23;6.82;;;-8.20;90.50;;;;;;5033286;28;20036;-83
2024/01/21 11:19:42;;;;;;;5.63;4.00;;;-8.30;90.60;;;;;;5030175;28;20045;-82
2024/01/21 11:22:12;;;;;;;11.23;6.15;;;-8.30;90.90;;;;;;5036363;28;20120;-83
2024/01/21 11:24:38;;;;;;;12.90;7.80;;;-8.40;91.30;;;;;;5036729;28;20470;-84
2024/01/21 11:27:04;;;;;;;12.73;6.57;;;-8.40;91.60;;;;;;5026357;28;20034;-84
2024/01/21 11:29:33;;;;;;;11.35;5.68;;;-8.40;91.80;;;;;;5028514;28;20026;-84
2024/01/21 11:32:05;;;;;;;9.57;5.78;;;-8.40;92.00;;;;;;5030914;28;20026;-83
2024/01/21 11:34:39;;;;;;;11.98;5.72;;;-8.50;92.20;;;;;;5025467;28;20017;-82
2024/01/21 11:37:10;;;;;;;9.50;6.47;;;-8.50;92.60;;;;;;5017442;28;20097;-82
2024/01/21 11:39:37;;;;;;;12.32;6.07;;;-8.50;92.20;;;;;;5032246;28;20479;-82
2024/01/21 11:42:03;;;;;;;15.50;7.25;;;-8.50;92.10;;;;;;5032236;28;20429;-82
2024/01/21 11:44:31;;;;;;;13.00;5.18;;;-8.60;92.00;;;;;;5030729;28;20516;-83
2024/01/21 11:47:02;;;;;;;15.23;7.60;;;-8.60;92.00;;;;;;5028804;28;20029;-83
2024/01/21 11:49:31;;;;;;;13.40;7.20;;;-8.60;91.80;;;;;;5022511;28;20144;-83
2024/01/21 11:51:59;;;;;;;14.98;7.28;;;-8.60;92.00;;;;;;5033489;28;20036;-82
2024/01/21 11:54:26;;;;;;;11.02;5.97;;;-8.60;91.80;;;;;;5032292;28;20025;-82
2024/01/21 11:56:55;;;;;;;15.90;7.93;;;-8.60;92.00;;;;;;5035523;28;20025;-82
2024/01/21 11:59:21;;;;;;;25.42;8.38;;;-8.60;92.00;;;;;;5034105;28;20085;-83
2024/01/21 12:01:48;;;;;;;11.93;6.68;;;-8.60;92.20;;;;;;5031483;28;20084;-82
2024/01/21 12:04:14;;;;;;;19.60;7.65;;;-8.60;92.30;;;;;;5019122;28;20038;-85
2024/01/21 12:06:45;;;;;;;13.82;8.38;;;-8.60;92.20;;;;;;5024700;28;20041;-84
2024/01/21 12:09:12;;;;;;;14.50;6.68;;;-8.60;92.40;;;;;;5029321;28;20494;-81
2024/01/21 12:11:39;;;;;;;9.88;6.55;;;-8.60;92.40;;;;;;5028834;28;20036;-82
2024/01/21 12:14:08;;;;;;;10.20;6.50;;;-8.60;92.40;;;;;;5027888;28;21470;-85
2024/01/21 12:16:35;;;;;;;11.70;6.30;;;-8.60;92.60;;;;;;5026848;28;20176;-82
2024/01/21 12:19:02;;;;;;;;;;;-8.60;92.90;;;;;;5032193;28;20052;-83
2024/01/21 12:21:29;;;;;;;10.68;5.57;;;-8.60;92.90;;;;;;5019954;28;20026;-82
2024/01/21 12:23:57;;;;;;;11.98;7.25;;;-8.60;93.20;;;;;;5038727;28;20456;-89
2024/01/21 12:26:24;;;;;;;10.93;6.28;;;-8.70;93.20;;;;;;5034142;28;20123;-82
2024/01/21 12:28:58;;;;;;;11.32;5.82;;;-8.60;93.30;;;;;;5032895;28;20029;-83
2024/01/21 12:31:29;;;;;;;16.15;7.78;;;-8.60;93.40;;;;;;5027773;28;20572;-85
2024/01/21 12:33:56;;;;;;;9.40;5.78;;;-8.60;93.50;;;;;;5028434;28;20036;-84
2024/01/21 12:36:33;;;;;;;10.50;6.47;;;-8.60;93.70;;;;;;5033858;28;20429;-83
2024/01/21 12:39:00;;;;;;;14.63;6.13;;;-8.60;93.60;;;;;;5036266;28;20035;-84
2024/01/21 12:41:26;;;;;;;12.50;6.97;;;-8.60;93.50;;;;;;5034912;28;20032;-83